Shiro, Texas
Current Conditions -  °F | °C
As of 5:53 PM on Sunday 23 Nov 2014 (Local Time) from KUTS Reporting Station
Clear Clear  
Wind Chill: 70°   Ceiling: Unl
Heat Index: 70°   Visibility: 10mi
Dew Point: 50°   Wind: 7mph
Humidity: 49%   Direction: 200°SSW
Pressure: 29.55"   Gusts: NA
Location:  30.61°N, 95.89°W
Report Text: KUTS 232353Z AUTO 20006KT 10SM CLR 21/10 A2955 RMK AO2 SLP003 T02110100 10256 20211 53019
Loading
Personal Weather Stations






























Interactive Weather Map New forecast layout! Learn more

10-Day Weather Forecast

Advertisements
Track Severe Weather on mobile